sensor_id;sensor_type;location;lat;lon;timestamp;P1;durP1;ratioP1;P2;durP2;ratioP2
63975;SDS011;50167;47.958;21.780;2022-09-13T00:00:55;6.70;;;3.67;;
63975;SDS011;50167;47.958;21.780;2022-09-13T00:03:22;9.07;;;4.80;;
63975;SDS011;50167;47.958;21.780;2022-09-13T00:05:48;4.87;;;3.50;;
63975;SDS011;50167;47.958;21.780;2022-09-13T00:08:15;9.40;;;4.53;;
63975;SDS011;50167;47.958;21.780;2022-09-13T00:10:42;8.13;;;4.33;;
63975;SDS011;50167;47.958;21.780;2022-09-13T00:13:10;6.87;;;3.97;;
63975;SDS011;50167;47.958;21.780;2022-09-13T00:15:48;4.97;;;3.20;;
63975;SDS011;50167;47.958;21.780;2022-09-13T00:18:15;4.73;;;3.10;;
63975;SDS011;50167;47.958;21.780;2022-09-13T00:20:43;17.33;;;4.70;;
63975;SDS011;50167;47.958;21.780;2022-09-13T00:23:10;4.80;;;3.63;;
63975;SDS011;50167;47.958;21.780;2022-09-13T00:25:37;5.77;;;3.63;;
63975;SDS011;50167;47.958;21.780;2022-09-13T00:28:04;6.20;;;3.17;;
63975;SDS011;50167;47.958;21.780;2022-09-13T00:30:31;9.07;;;3.70;;
63975;SDS011;50167;47.958;21.780;2022-09-13T00:32:57;3.33;;;2.77;;
63975;SDS011;50167;47.958;21.780;2022-09-13T00:35:24;5.60;;;3.50;;
63975;SDS011;50167;47.958;21.780;2022-09-13T00:37:50;7.47;;;3.90;;
63975;SDS011;50167;47.958;21.780;2022-09-13T00:40:17;4.80;;;3.33;;
63975;SDS011;50167;47.958;21.780;2022-09-13T00:42:43;5.90;;;3.00;;
63975;SDS011;50167;47.958;21.780;2022-09-13T00:47:45;5.17;;;3.90;;
63975;SDS011;50167;47.958;21.780;2022-09-13T00:53:11;6.97;;;3.50;;
63975;SDS011;50167;47.958;21.780;2022-09-13T00:55:55;10.03;;;3.27;;
63975;SDS011;50167;47.958;21.780;2022-09-13T00:58:49;6.67;;;3.70;;
63975;SDS011;50167;47.958;21.780;2022-09-13T01:01:22;4.77;;;3.00;;
63975;SDS011;50167;47.958;21.780;2022-09-13T01:03:53;3.00;;;2.70;;
63975;SDS011;50167;47.958;21.780;2022-09-13T01:06:21;3.40;;;3.00;;
63975;SDS011;50167;47.958;21.780;2022-09-13T01:08:52;5.80;;;3.87;;
63975;SDS011;50167;47.958;21.780;2022-09-13T01:11:21;7.57;;;4.07;;
63975;SDS011;50167;47.958;21.780;2022-09-13T01:13:56;4.07;;;3.67;;
63975;SDS011;50167;47.958;21.780;2022-09-13T01:16:23;7.70;;;4.90;;
63975;SDS011;50167;47.958;21.780;2022-09-13T01:18:51;8.87;;;4.37;;
63975;SDS011;50167;47.958;21.780;2022-09-13T01:30:23;6.90;;;3.30;;
63975;SDS011;50167;47.958;21.780;2022-09-13T01:35:45;5.65;;;4.12;;
63975;SDS011;50167;47.958;21.780;2022-09-13T01:38:30;7.37;;;3.90;;
63975;SDS011;50167;47.958;21.780;2022-09-13T01:52:03;4.33;;;3.53;;
63975;SDS011;50167;47.958;21.780;2022-09-13T02:00:47;8.25;;;5.37;;
63975;SDS011;50167;47.958;21.780;2022-09-13T02:03:32;10.20;;;4.80;;
63975;SDS011;50167;47.958;21.780;2022-09-13T02:06:14;5.37;;;3.57;;
63975;SDS011;50167;47.958;21.780;2022-09-13T02:08:51;5.70;;;3.20;;
63975;SDS011;50167;47.958;21.780;2022-09-13T02:11:21;8.93;;;3.63;;
63975;SDS011;50167;47.958;21.780;2022-09-13T02:13:50;4.90;;;3.90;;
63975;SDS011;50167;47.958;21.780;2022-09-13T02:16:23;9.43;;;4.07;;
63975;SDS011;50167;47.958;21.780;2022-09-13T02:18:56;10.50;;;4.57;;
63975;SDS011;50167;47.958;21.780;2022-09-13T02:21:31;11.67;;;5.33;;
63975;SDS011;50167;47.958;21.780;2022-09-13T02:24:10;5.20;;;4.58;;
63975;SDS011;50167;47.958;21.780;2022-09-13T02:26:33;5.73;;;4.33;;
63975;SDS011;50167;47.958;21.780;2022-09-13T02:29:04;8.60;;;4.27;;
63975;SDS011;50167;47.958;21.780;2022-09-13T02:31:35;11.90;;;3.67;;
63975;SDS011;50167;47.958;21.780;2022-09-13T02:34:25;4.63;;;4.00;;
63975;SDS011;50167;47.958;21.780;2022-09-13T02:36:46;11.95;;;4.80;;
63975;SDS011;50167;47.958;21.780;2022-09-13T02:39:16;7.47;;;3.60;;
63975;SDS011;50167;47.958;21.780;2022-09-13T02:44:44;5.27;;;3.87;;
63975;SDS011;50167;47.958;21.780;2022-09-13T02:53:26;4.90;;;3.20;;
63975;SDS011;50167;47.958;21.780;2022-09-13T02:58:52;6.17;;;4.00;;
63975;SDS011;50167;47.958;21.780;2022-09-13T03:01:31;4.20;;;3.65;;
63975;SDS011;50167;47.958;21.780;2022-09-13T03:04:00;4.73;;;4.30;;
63975;SDS011;50167;47.958;21.780;2022-09-13T03:06:28;7.43;;;4.63;;
63975;SDS011;50167;47.958;21.780;2022-09-13T03:08:55;9.07;;;5.07;;
63975;SDS011;50167;47.958;21.780;2022-09-13T03:11:31;5.72;;;4.17;;
63975;SDS011;50167;47.958;21.780;2022-09-13T03:14:19;3.80;;;3.23;;
63975;SDS011;50167;47.958;21.780;2022-09-13T03:22:52;16.47;;;5.37;;
63975;SDS011;50167;47.958;21.780;2022-09-13T03:31:51;7.17;;;5.53;;
63975;SDS011;50167;47.958;21.780;2022-09-13T03:34:37;10.93;;;6.67;;
63975;SDS011;50167;47.958;21.780;2022-09-13T03:37:20;8.90;;;5.23;;
63975;SDS011;50167;47.958;21.780;2022-09-13T03:40:11;5.53;;;4.30;;
63975;SDS011;50167;47.958;21.780;2022-09-13T03:45:48;5.83;;;4.37;;
63975;SDS011;50167;47.958;21.780;2022-09-13T03:48:24;8.40;;;4.60;;
63975;SDS011;50167;47.958;21.780;2022-09-13T03:50:52;7.80;;;4.97;;
63975;SDS011;50167;47.958;21.780;2022-09-13T03:53:21;11.23;;;5.53;;
63975;SDS011;50167;47.958;21.780;2022-09-13T03:55:50;9.95;;;5.12;;
63975;SDS011;50167;47.958;21.780;2022-09-13T03:58:17;13.90;;;5.87;;
63975;SDS011;50167;47.958;21.780;2022-09-13T04:00:46;10.60;;;5.13;;
63975;SDS011;50167;47.958;21.780;2022-09-13T04:03:12;12.90;;;5.13;;
63975;SDS011;50167;47.958;21.780;2022-09-13T04:05:39;7.73;;;5.00;;
63975;SDS011;50167;47.958;21.780;2022-09-13T04:08:05;10.37;;;4.43;;
63975;SDS011;50167;47.958;21.780;2022-09-13T04:10:33;9.73;;;6.27;;
63975;SDS011;50167;47.958;21.780;2022-09-13T04:13:02;7.03;;;5.70;;
63975;SDS011;50167;47.958;21.780;2022-09-13T04:15:28;8.50;;;5.67;;
63975;SDS011;50167;47.958;21.780;2022-09-13T04:17:55;11.83;;;5.97;;
63975;SDS011;50167;47.958;21.780;2022-09-13T04:20:21;9.57;;;6.57;;
63975;SDS011;50167;47.958;21.780;2022-09-13T04:22:50;10.57;;;5.97;;
63975;SDS011;50167;47.958;21.780;2022-09-13T04:25:19;6.87;;;5.27;;
63975;SDS011;50167;47.958;21.780;2022-09-13T04:27:46;11.17;;;6.20;;
63975;SDS011;50167;47.958;21.780;2022-09-13T04:30:13;8.80;;;6.17;;
63975;SDS011;50167;47.958;21.780;2022-09-13T04:32:43;10.07;;;5.00;;
63975;SDS011;50167;47.958;21.780;2022-09-13T04:35:09;9.73;;;5.90;;
63975;SDS011;50167;47.958;21.780;2022-09-13T04:37:36;8.07;;;5.77;;
63975;SDS011;50167;47.958;21.780;2022-09-13T04:40:04;9.47;;;5.37;;
63975;SDS011;50167;47.958;21.780;2022-09-13T04:42:32;11.67;;;6.20;;
63975;SDS011;50167;47.958;21.780;2022-09-13T04:44:58;10.23;;;6.40;;
63975;SDS011;50167;47.958;21.780;2022-09-13T04:47:24;16.00;;;7.20;;
63975;SDS011;50167;47.958;21.780;2022-09-13T04:49:50;9.03;;;6.40;;
63975;SDS011;50167;47.958;21.780;2022-09-13T04:52:16;11.67;;;5.70;;
63975;SDS011;50167;47.958;21.780;2022-09-13T04:54:42;11.37;;;6.07;;
63975;SDS011;50167;47.958;21.780;2022-09-13T04:57:08;9.63;;;6.20;;
63975;SDS011;50167;47.958;21.780;2022-09-13T04:59:34;12.57;;;7.87;;
63975;SDS011;50167;47.958;21.780;2022-09-13T05:02:00;10.67;;;6.87;;
63975;SDS011;50167;47.958;21.780;2022-09-13T05:04:26;12.73;;;6.50;;
63975;SDS011;50167;47.958;21.780;2022-09-13T05:06:52;9.67;;;5.87;;
63975;SDS011;50167;47.958;21.780;2022-09-13T05:09:18;15.00;;;6.23;;
63975;SDS011;50167;47.958;21.780;2022-09-13T05:11:44;8.67;;;5.47;;
63975;SDS011;50167;47.958;21.780;2022-09-13T05:14:10;17.03;;;6.37;;
63975;SDS011;50167;47.958;21.780;2022-09-13T05:16:37;7.97;;;5.43;;
63975;SDS011;50167;47.958;21.780;2022-09-13T05:19:03;17.40;;;7.03;;
63975;SDS011;50167;47.958;21.780;2022-09-13T05:21:29;15.53;;;7.60;;
63975;SDS011;50167;47.958;21.780;2022-09-13T05:23:56;11.03;;;6.57;;
63975;SDS011;50167;47.958;21.780;2022-09-13T05:26:24;12.63;;;6.23;;
63975;SDS011;50167;47.958;21.780;2022-09-13T05:28:55;17.27;;;6.73;;
63975;SDS011;50167;47.958;21.780;2022-09-13T05:31:23;8.60;;;6.30;;
63975;SDS011;50167;47.958;21.780;2022-09-13T05:37:52;10.67;;;6.97;;
63975;SDS011;50167;47.958;21.780;2022-09-13T05:40:18;11.37;;;6.67;;
63975;SDS011;50167;47.958;21.780;2022-09-13T05:42:44;12.07;;;6.97;;
63975;SDS011;50167;47.958;21.780;2022-09-13T05:45:10;9.43;;;6.27;;
63975;SDS011;50167;47.958;21.780;2022-09-13T05:47:36;9.57;;;5.87;;
63975;SDS011;50167;47.958;21.780;2022-09-13T05:50:03;7.33;;;5.77;;
63975;SDS011;50167;47.958;21.780;2022-09-13T05:52:29;17.10;;;6.40;;
63975;SDS011;50167;47.958;21.780;2022-09-13T05:54:55;8.37;;;5.47;;
63975;SDS011;50167;47.958;21.780;2022-09-13T05:57:21;7.90;;;5.47;;
63975;SDS011;50167;47.958;21.780;2022-09-13T05:59:47;8.87;;;5.53;;
63975;SDS011;50167;47.958;21.780;2022-09-13T06:02:13;9.50;;;5.50;;
63975;SDS011;50167;47.958;21.780;2022-09-13T06:04:39;16.17;;;6.27;;
63975;SDS011;50167;47.958;21.780;2022-09-13T06:07:05;7.07;;;5.00;;
63975;SDS011;50167;47.958;21.780;2022-09-13T06:09:31;8.03;;;4.80;;
63975;SDS011;50167;47.958;21.780;2022-09-13T06:11:57;9.40;;;4.67;;
63975;SDS011;50167;47.958;21.780;2022-09-13T06:14:23;8.87;;;5.53;;
63975;SDS011;50167;47.958;21.780;2022-09-13T06:16:50;10.13;;;5.20;;
63975;SDS011;50167;47.958;21.780;2022-09-13T06:19:16;7.10;;;4.60;;
63975;SDS011;50167;47.958;21.780;2022-09-13T06:21:42;9.10;;;4.07;;
63975;SDS011;50167;47.958;21.780;2022-09-13T06:24:08;7.63;;;4.83;;
63975;SDS011;50167;47.958;21.780;2022-09-13T06:26:34;9.17;;;4.97;;
63975;SDS011;50167;47.958;21.780;2022-09-13T06:29:00;4.57;;;4.03;;
63975;SDS011;50167;47.958;21.780;2022-09-13T06:31:26;7.00;;;3.90;;
63975;SDS011;50167;47.958;21.780;2022-09-13T06:33:59;6.57;;;3.67;;
63975;SDS011;50167;47.958;21.780;2022-09-13T06:36:25;5.00;;;3.87;;
63975;SDS011;50167;47.958;21.780;2022-09-13T06:38:53;7.17;;;3.83;;
63975;SDS011;50167;47.958;21.780;2022-09-13T06:41:21;8.07;;;4.53;;
63975;SDS011;50167;47.958;21.780;2022-09-13T06:43:54;4.62;;;3.35;;
63975;SDS011;50167;47.958;21.780;2022-09-13T06:46:24;6.43;;;3.23;;
63975;SDS011;50167;47.958;21.780;2022-09-13T06:49:00;6.43;;;3.83;;
63975;SDS011;50167;47.958;21.780;2022-09-13T06:51:30;6.67;;;3.77;;
63975;SDS011;50167;47.958;21.780;2022-09-13T06:53:59;10.10;;;3.00;;
63975;SDS011;50167;47.958;21.780;2022-09-13T06:56:30;11.57;;;4.83;;
63975;SDS011;50167;47.958;21.780;2022-09-13T06:59:01;6.97;;;2.97;;
63975;SDS011;50167;47.958;21.780;2022-09-13T07:01:33;3.47;;;2.67;;
63975;SDS011;50167;47.958;21.780;2022-09-13T07:04:07;4.60;;;2.90;;
63975;SDS011;50167;47.958;21.780;2022-09-13T07:06:38;3.33;;;2.43;;
63975;SDS011;50167;47.958;21.780;2022-09-13T07:09:12;6.57;;;2.40;;
63975;SDS011;50167;47.958;21.780;2022-09-13T07:11:48;5.70;;;2.73;;
63975;SDS011;50167;47.958;21.780;2022-09-13T07:14:28;5.60;;;2.45;;
63975;SDS011;50167;47.958;21.780;2022-09-13T07:16:56;2.80;;;2.10;;
63975;SDS011;50167;47.958;21.780;2022-09-13T07:19:24;4.60;;;2.83;;
63975;SDS011;50167;47.958;21.780;2022-09-13T07:21:52;3.67;;;2.50;;
63975;SDS011;50167;47.958;21.780;2022-09-13T07:24:21;3.33;;;2.23;;
63975;SDS011;50167;47.958;21.780;2022-09-13T07:26:49;7.93;;;2.40;;
63975;SDS011;50167;47.958;21.780;2022-09-13T07:29:18;3.47;;;2.50;;
63975;SDS011;50167;47.958;21.780;2022-09-13T07:31:49;5.73;;;2.50;;
63975;SDS011;50167;47.958;21.780;2022-09-13T07:36:48;3.03;;;2.47;;
63975;SDS011;50167;47.958;21.780;2022-09-13T07:39:17;9.77;;;2.43;;
63975;SDS011;50167;47.958;21.780;2022-09-13T07:41:45;14.70;;;3.90;;
63975;SDS011;50167;47.958;21.780;2022-09-13T07:44:12;4.07;;;2.37;;
63975;SDS011;50167;47.958;21.780;2022-09-13T07:46:39;4.70;;;2.37;;
63975;SDS011;50167;47.958;21.780;2022-09-13T07:49:15;5.43;;;2.80;;
63975;SDS011;50167;47.958;21.780;2022-09-13T07:51:40;8.90;;;2.42;;
63975;SDS011;50167;47.958;21.780;2022-09-13T07:54:13;9.30;;;2.55;;
63975;SDS011;50167;47.958;21.780;2022-09-13T07:56:43;6.73;;;2.57;;
63975;SDS011;50167;47.958;21.780;2022-09-13T07:59:12;6.17;;;2.37;;
63975;SDS011;50167;47.958;21.780;2022-09-13T08:04:11;4.13;;;2.60;;
63975;SDS011;50167;47.958;21.780;2022-09-13T08:06:42;9.87;;;2.67;;
63975;SDS011;50167;47.958;21.780;2022-09-13T08:09:10;4.77;;;2.63;;
63975;SDS011;50167;47.958;21.780;2022-09-13T08:11:39;7.47;;;2.10;;
63975;SDS011;50167;47.958;21.780;2022-09-13T08:14:15;4.70;;;2.90;;
63975;SDS011;50167;47.958;21.780;2022-09-13T08:19:13;6.35;;;2.80;;
63975;SDS011;50167;47.958;21.780;2022-09-13T08:21:43;2.67;;;2.05;;
63975;SDS011;50167;47.958;21.780;2022-09-13T08:24:14;4.35;;;2.52;;
63975;SDS011;50167;47.958;21.780;2022-09-13T08:26:44;6.62;;;2.95;;
63975;SDS011;50167;47.958;21.780;2022-09-13T08:29:16;6.85;;;2.62;;
63975;SDS011;50167;47.958;21.780;2022-09-13T08:31:44;10.03;;;2.65;;
63975;SDS011;50167;47.958;21.780;2022-09-13T08:34:12;9.70;;;2.55;;
63975;SDS011;50167;47.958;21.780;2022-09-13T08:36:41;8.15;;;3.52;;
63975;SDS011;50167;47.958;21.780;2022-09-13T08:39:10;6.00;;;4.10;;
63975;SDS011;50167;47.958;21.780;2022-09-13T08:44:20;9.15;;;2.70;;
63975;SDS011;50167;47.958;21.780;2022-09-13T08:50:09;2.98;;;2.25;;
63975;SDS011;50167;47.958;21.780;2022-09-13T08:52:53;8.78;;;3.58;;
63975;SDS011;50167;47.958;21.780;2022-09-13T09:04:45;4.95;;;2.00;;
63975;SDS011;50167;47.958;21.780;2022-09-13T09:07:33;3.67;;;2.47;;
63975;SDS011;50167;47.958;21.780;2022-09-13T09:13:06;2.22;;;1.60;;
63975;SDS011;50167;47.958;21.780;2022-09-13T09:15:47;4.45;;;1.95;;
63975;SDS011;50167;47.958;21.780;2022-09-13T09:18:23;7.08;;;1.85;;
63975;SDS011;50167;47.958;21.780;2022-09-13T09:20:54;5.25;;;1.92;;
63975;SDS011;50167;47.958;21.780;2022-09-13T09:26:13;6.05;;;1.87;;
63975;SDS011;50167;47.958;21.780;2022-09-13T09:28:46;7.95;;;1.90;;
63975;SDS011;50167;47.958;21.780;2022-09-13T09:36:55;3.90;;;1.82;;
63975;SDS011;50167;47.958;21.780;2022-09-13T09:39:31;3.45;;;1.90;;
63975;SDS011;50167;47.958;21.780;2022-09-13T09:42:00;3.77;;;2.30;;
63975;SDS011;50167;47.958;21.780;2022-09-13T09:44:29;5.72;;;2.22;;
63975;SDS011;50167;47.958;21.780;2022-09-13T09:47:05;6.90;;;2.87;;
63975;SDS011;50167;47.958;21.780;2022-09-13T09:49:45;3.87;;;2.10;;
63975;SDS011;50167;47.958;21.780;2022-09-13T09:55:34;6.62;;;2.10;;
63975;SDS011;50167;47.958;21.780;2022-09-13T09:58:11;3.47;;;2.12;;
63975;SDS011;50167;47.958;21.780;2022-09-13T10:03:24;7.25;;;3.05;;
63975;SDS011;50167;47.958;21.780;2022-09-13T10:06:30;3.17;;;2.27;;
63975;SDS011;50167;47.958;21.780;2022-09-13T10:08:41;4.33;;;2.75;;
63975;SDS011;50167;47.958;21.780;2022-09-13T10:11:09;3.42;;;2.20;;
63975;SDS011;50167;47.958;21.780;2022-09-13T10:13:37;3.35;;;2.62;;
63975;SDS011;50167;47.958;21.780;2022-09-13T10:19:24;5.00;;;2.62;;
63975;SDS011;50167;47.958;21.780;2022-09-13T10:21:58;4.78;;;1.50;;
63975;SDS011;50167;47.958;21.780;2022-09-13T10:24:29;2.92;;;1.87;;
63975;SDS011;50167;47.958;21.780;2022-09-13T10:26:57;4.42;;;2.17;;
63975;SDS011;50167;47.958;21.780;2022-09-13T10:29:25;4.55;;;1.72;;
63975;SDS011;50167;47.958;21.780;2022-09-13T10:31:53;7.67;;;1.82;;
63975;SDS011;50167;47.958;21.780;2022-09-13T10:34:24;55.33;;;3.70;;
63975;SDS011;50167;47.958;21.780;2022-09-13T10:37:04;6.20;;;1.98;;
63975;SDS011;50167;47.958;21.780;2022-09-13T10:42:31;3.02;;;1.85;;
63975;SDS011;50167;47.958;21.780;2022-09-13T10:47:32;4.22;;;2.00;;
63975;SDS011;50167;47.958;21.780;2022-09-13T10:50:11;8.18;;;1.98;;
63975;SDS011;50167;47.958;21.780;2022-09-13T10:52:49;5.12;;;2.00;;
63975;SDS011;50167;47.958;21.780;2022-09-13T10:55:22;2.27;;;1.47;;
63975;SDS011;50167;47.958;21.780;2022-09-13T10:57:56;6.37;;;2.10;;
63975;SDS011;50167;47.958;21.780;2022-09-13T11:06:40;3.90;;;1.72;;
63975;SDS011;50167;47.958;21.780;2022-09-13T11:09:28;2.30;;;1.57;;
63975;SDS011;50167;47.958;21.780;2022-09-13T11:12:14;4.03;;;1.80;;
63975;SDS011;50167;47.958;21.780;2022-09-13T11:20:42;2.12;;;1.42;;
63975;SDS011;50167;47.958;21.780;2022-09-13T11:39:15;5.78;;;2.08;;
63975;SDS011;50167;47.958;21.780;2022-09-13T11:44:45;2.65;;;2.17;;
63975;SDS011;50167;47.958;21.780;2022-09-13T11:47:47;6.10;;;2.67;;
63975;SDS011;50167;47.958;21.780;2022-09-13T11:56:37;2.13;;;1.37;;
63975;SDS011;50167;47.958;21.780;2022-09-13T12:02:17;2.10;;;1.42;;
63975;SDS011;50167;47.958;21.780;2022-09-13T12:04:59;8.80;;;2.00;;
63975;SDS011;50167;47.958;21.780;2022-09-13T12:10:58;2.43;;;1.50;;
63975;SDS011;50167;47.958;21.780;2022-09-13T12:13:52;3.62;;;1.52;;
63975;SDS011;50167;47.958;21.780;2022-09-13T12:16:22;2.70;;;1.75;;
63975;SDS011;50167;47.958;21.780;2022-09-13T12:18:54;8.13;;;2.80;;
63975;SDS011;50167;47.958;21.780;2022-09-13T12:21:26;5.53;;;1.87;;
63975;SDS011;50167;47.958;21.780;2022-09-13T13:37:21;2.40;;;1.30;;
63975;SDS011;50167;47.958;21.780;2022-09-13T13:39:43;6.25;;;1.90;;
63975;SDS011;50167;47.958;21.780;2022-09-13T13:42:21;3.30;;;2.27;;
63975;SDS011;50167;47.958;21.780;2022-09-13T13:48:46;12.05;;;2.67;;
63975;SDS011;50167;47.958;21.780;2022-09-13T13:53:51;5.03;;;2.27;;
63975;SDS011;50167;47.958;21.780;2022-09-13T13:59:16;5.05;;;2.35;;
63975;SDS011;50167;47.958;21.780;2022-09-13T14:01:51;2.60;;;1.77;;
63975;SDS011;50167;47.958;21.780;2022-09-13T14:10:24;2.08;;;1.80;;
63975;SDS011;50167;47.958;21.780;2022-09-13T14:19:46;4.37;;;2.15;;
63975;SDS011;50167;47.958;21.780;2022-09-13T15:01:26;4.20;;;1.60;;
63975;SDS011;50167;47.958;21.780;2022-09-13T15:03:57;6.03;;;1.45;;
63975;SDS011;50167;47.958;21.780;2022-09-13T15:06:26;3.60;;;1.70;;
63975;SDS011;50167;47.958;21.780;2022-09-13T15:11:41;4.33;;;1.70;;
63975;SDS011;50167;47.958;21.780;2022-09-13T15:14:22;1.77;;;1.55;;
63975;SDS011;50167;47.958;21.780;2022-09-13T15:19:48;7.97;;;2.12;;
63975;SDS011;50167;47.958;21.780;2022-09-13T15:22:21;3.72;;;2.33;;
63975;SDS011;50167;47.958;21.780;2022-09-13T15:24:58;6.12;;;2.35;;
63975;SDS011;50167;47.958;21.780;2022-09-13T15:27:30;4.28;;;2.33;;
63975;SDS011;50167;47.958;21.780;2022-09-13T15:30:20;5.20;;;2.75;;
63975;SDS011;50167;47.958;21.780;2022-09-13T15:33:03;2.87;;;2.25;;
63975;SDS011;50167;47.958;21.780;2022-09-13T15:35:40;3.98;;;2.67;;
63975;SDS011;50167;47.958;21.780;2022-09-13T15:38:20;5.08;;;3.10;;
63975;SDS011;50167;47.958;21.780;2022-09-13T15:41:17;5.65;;;5.05;;
63975;SDS011;50167;47.958;21.780;2022-09-13T15:43:46;13.50;;;5.72;;
63975;SDS011;50167;47.958;21.780;2022-09-13T15:46:14;4.37;;;2.60;;
63975;SDS011;50167;47.958;21.780;2022-09-13T15:48:43;6.85;;;2.62;;
63975;SDS011;50167;47.958;21.780;2022-09-13T15:51:17;13.00;;;2.45;;
63975;SDS011;50167;47.958;21.780;2022-09-13T15:53:45;4.58;;;2.75;;
63975;SDS011;50167;47.958;21.780;2022-09-13T15:56:12;5.00;;;2.85;;
63975;SDS011;50167;47.958;21.780;2022-09-13T15:58:46;6.08;;;2.62;;
63975;SDS011;50167;47.958;21.780;2022-09-13T16:01:13;2.87;;;2.20;;
63975;SDS011;50167;47.958;21.780;2022-09-13T16:03:40;3.75;;;1.98;;
63975;SDS011;50167;47.958;21.780;2022-09-13T16:06:07;5.00;;;2.40;;
63975;SDS011;50167;47.958;21.780;2022-09-13T16:08:35;5.53;;;2.60;;
63975;SDS011;50167;47.958;21.780;2022-09-13T16:11:06;12.10;;;2.83;;
63975;SDS011;50167;47.958;21.780;2022-09-13T16:13:33;3.10;;;2.30;;
63975;SDS011;50167;47.958;21.780;2022-09-13T16:16:00;3.65;;;2.25;;
63975;SDS011;50167;47.958;21.780;2022-09-13T16:18:29;2.65;;;2.20;;
63975;SDS011;50167;47.958;21.780;2022-09-13T16:20:56;6.05;;;2.33;;
63975;SDS011;50167;47.958;21.780;2022-09-13T16:23:22;5.37;;;2.12;;
63975;SDS011;50167;47.958;21.780;2022-09-13T16:25:53;4.73;;;2.27;;
63975;SDS011;50167;47.958;21.780;2022-09-13T16:28:19;5.30;;;2.43;;
63975;SDS011;50167;47.958;21.780;2022-09-13T16:30:46;3.87;;;2.23;;
63975;SDS011;50167;47.958;21.780;2022-09-13T16:33:12;2.40;;;2.10;;
63975;SDS011;50167;47.958;21.780;2022-09-13T16:35:38;7.27;;;2.40;;
63975;SDS011;50167;47.958;21.780;2022-09-13T16:38:05;3.77;;;2.07;;
63975;SDS011;50167;47.958;21.780;2022-09-13T16:40:31;6.53;;;2.90;;
63975;SDS011;50167;47.958;21.780;2022-09-13T16:42:57;7.10;;;2.67;;
63975;SDS011;50167;47.958;21.780;2022-09-13T16:45:23;7.43;;;2.47;;
63975;SDS011;50167;47.958;21.780;2022-09-13T16:47:49;3.10;;;2.10;;
63975;SDS011;50167;47.958;21.780;2022-09-13T16:50:16;5.07;;;2.20;;
63975;SDS011;50167;47.958;21.780;2022-09-13T16:52:43;6.20;;;2.30;;
63975;SDS011;50167;47.958;21.780;2022-09-13T16:58:05;6.03;;;3.90;;
63975;SDS011;50167;47.958;21.780;2022-09-13T17:00:32;9.17;;;3.23;;
63975;SDS011;50167;47.958;21.780;2022-09-13T17:02:59;4.20;;;2.87;;
63975;SDS011;50167;47.958;21.780;2022-09-13T17:05:25;6.10;;;2.50;;
63975;SDS011;50167;47.958;21.780;2022-09-13T17:07:52;6.97;;;2.90;;
63975;SDS011;50167;47.958;21.780;2022-09-13T17:10:18;5.37;;;3.37;;
63975;SDS011;50167;47.958;21.780;2022-09-13T17:12:45;9.27;;;4.43;;
63975;SDS011;50167;47.958;21.780;2022-09-13T17:15:11;5.83;;;3.70;;
63975;SDS011;50167;47.958;21.780;2022-09-13T17:17:38;5.10;;;2.90;;
63975;SDS011;50167;47.958;21.780;2022-09-13T17:20:05;5.53;;;3.23;;
63975;SDS011;50167;47.958;21.780;2022-09-13T17:22:34;5.05;;;3.02;;
63975;SDS011;50167;47.958;21.780;2022-09-13T17:25:01;5.17;;;3.33;;
63975;SDS011;50167;47.958;21.780;2022-09-13T17:27:28;9.47;;;4.80;;
63975;SDS011;50167;47.958;21.780;2022-09-13T17:29:54;11.60;;;4.73;;
63975;SDS011;50167;47.958;21.780;2022-09-13T17:32:20;12.40;;;5.27;;
63975;SDS011;50167;47.958;21.780;2022-09-13T17:34:46;14.63;;;4.80;;
63975;SDS011;50167;47.958;21.780;2022-09-13T17:37:12;12.03;;;5.40;;
63975;SDS011;50167;47.958;21.780;2022-09-13T17:39:38;9.17;;;5.40;;
63975;SDS011;50167;47.958;21.780;2022-09-13T17:42:05;8.23;;;5.00;;
63975;SDS011;50167;47.958;21.780;2022-09-13T17:44:33;10.97;;;4.87;;
63975;SDS011;50167;47.958;21.780;2022-09-13T17:47:01;6.33;;;4.37;;
63975;SDS011;50167;47.958;21.780;2022-09-13T17:49:27;7.43;;;4.37;;
63975;SDS011;50167;47.958;21.780;2022-09-13T17:51:53;5.90;;;4.17;;
63975;SDS011;50167;47.958;21.780;2022-09-13T17:54:19;4.50;;;3.20;;
63975;SDS011;50167;47.958;21.780;2022-09-13T17:56:45;8.93;;;3.87;;
63975;SDS011;50167;47.958;21.780;2022-09-13T17:59:12;9.00;;;3.13;;
63975;SDS011;50167;47.958;21.780;2022-09-13T18:01:45;5.33;;;3.20;;
63975;SDS011;50167;47.958;21.780;2022-09-13T18:04:15;6.15;;;2.90;;
63975;SDS011;50167;47.958;21.780;2022-09-13T18:06:43;5.00;;;3.17;;
63975;SDS011;50167;47.958;21.780;2022-09-13T18:09:10;7.73;;;3.20;;
63975;SDS011;50167;47.958;21.780;2022-09-13T18:11:38;4.70;;;3.50;;
63975;SDS011;50167;47.958;21.780;2022-09-13T18:14:05;7.10;;;3.20;;
63975;SDS011;50167;47.958;21.780;2022-09-13T18:16:36;4.60;;;3.20;;
63975;SDS011;50167;47.958;21.780;2022-09-13T18:19:04;7.77;;;3.53;;
63975;SDS011;50167;47.958;21.780;2022-09-13T18:21:30;6.87;;;4.00;;
63975;SDS011;50167;47.958;21.780;2022-09-13T18:23:57;9.17;;;3.43;;
63975;SDS011;50167;47.958;21.780;2022-09-13T18:26:26;8.40;;;3.50;;
63975;SDS011;50167;47.958;21.780;2022-09-13T18:28:58;6.17;;;3.40;;
63975;SDS011;50167;47.958;21.780;2022-09-13T18:31:27;9.60;;;3.43;;
63975;SDS011;50167;47.958;21.780;2022-09-13T18:33:55;4.43;;;2.97;;
63975;SDS011;50167;47.958;21.780;2022-09-13T18:36:25;5.62;;;3.08;;
63975;SDS011;50167;47.958;21.780;2022-09-13T18:38:54;3.20;;;2.33;;
63975;SDS011;50167;47.958;21.780;2022-09-13T18:41:26;6.53;;;3.03;;
63975;SDS011;50167;47.958;21.780;2022-09-13T18:43:52;5.10;;;3.00;;
63975;SDS011;50167;47.958;21.780;2022-09-13T18:46:20;4.20;;;2.90;;
63975;SDS011;50167;47.958;21.780;2022-09-13T18:48:55;5.00;;;2.80;;
63975;SDS011;50167;47.958;21.780;2022-09-13T18:51:22;6.67;;;2.80;;
63975;SDS011;50167;47.958;21.780;2022-09-13T18:53:52;6.23;;;2.90;;
63975;SDS011;50167;47.958;21.780;2022-09-13T18:56:20;4.13;;;2.73;;
63975;SDS011;50167;47.958;21.780;2022-09-13T18:58:48;6.70;;;3.20;;
63975;SDS011;50167;47.958;21.780;2022-09-13T19:01:16;5.50;;;2.63;;
63975;SDS011;50167;47.958;21.780;2022-09-13T19:04:00;7.20;;;3.55;;
63975;SDS011;50167;47.958;21.780;2022-09-13T19:08:54;5.03;;;3.30;;
63975;SDS011;50167;47.958;21.780;2022-09-13T19:11:22;4.63;;;2.67;;
63975;SDS011;50167;47.958;21.780;2022-09-13T19:13:52;3.15;;;2.17;;
63975;SDS011;50167;47.958;21.780;2022-09-13T19:16:19;6.33;;;2.90;;
63975;SDS011;50167;47.958;21.780;2022-09-13T19:18:46;4.87;;;2.70;;
63975;SDS011;50167;47.958;21.780;2022-09-13T19:21:16;6.08;;;2.62;;
63975;SDS011;50167;47.958;21.780;2022-09-13T19:23:45;4.12;;;2.80;;
63975;SDS011;50167;47.958;21.780;2022-09-13T19:26:15;5.30;;;2.37;;
63975;SDS011;50167;47.958;21.780;2022-09-13T19:28:46;5.30;;;2.97;;
63975;SDS011;50167;47.958;21.780;2022-09-13T19:31:21;4.57;;;3.10;;
63975;SDS011;50167;47.958;21.780;2022-09-13T19:33:50;3.77;;;2.70;;
63975;SDS011;50167;47.958;21.780;2022-09-13T19:36:20;6.93;;;3.20;;
63975;SDS011;50167;47.958;21.780;2022-09-13T19:38:49;5.03;;;2.98;;
63975;SDS011;50167;47.958;21.780;2022-09-13T19:41:22;8.00;;;3.77;;
63975;SDS011;50167;47.958;21.780;2022-09-13T19:43:53;8.33;;;3.27;;
63975;SDS011;50167;47.958;21.780;2022-09-13T19:46:33;7.12;;;3.47;;
63975;SDS011;50167;47.958;21.780;2022-09-13T19:49:02;5.00;;;2.87;;
63975;SDS011;50167;47.958;21.780;2022-09-13T19:51:30;4.47;;;3.07;;
63975;SDS011;50167;47.958;21.780;2022-09-13T19:54:02;4.97;;;2.87;;
63975;SDS011;50167;47.958;21.780;2022-09-13T19:56:31;7.53;;;3.00;;